ADDS METAR Data INFO
IDs: Format: Raw Decoded Include TAF

Data at: 0754 UTC 17 Oct 2017

KSMX 170751Z AUTO 00000KT 10SM CLR 14/02 A3006 RMK AO2 SLP178 T01440017 403330100
KSMX 170651Z AUTO 16004KT 10SM CLR 15/02 A3007 RMK AO2 SLP181 T01500022
KSMX 170551Z AUTO 16003KT 10SM CLR 16/02 A3008 RMK AO2 SLP186 T01610022 10256 20150 51014
KSMX 170451Z AUTO 00000KT 10SM CLR 18/02 A3007 RMK AO2 SLP181 T01780017
KSMX 170351Z AUTO 18006KT 10SM CLR 18/02 A3006 RMK AO2 SLP179 T01830022
KSMX 170251Z 17005KT 9SM CLR 18/04 A3004 RMK AO2 SLP172 T01830044 55000
KSMX 170151Z 31003KT 7SM CLR 21/06 A3004 RMK AO2 SLP172 T02060056
KSMX 170051Z 30004KT 10SM CLR 23/07 A3003 RMK AO2 SLP170 T02330067
KSMX 162351Z 31007KT 10SM CLR 26/03 A3004 RMK AO2 SLP173 T02560033 10333 20256 56005
KSMX 162251Z COR 30003KT 7SM HZ CLR 27/03 A3004 RMK AO2 SLP174 T02670028
KSMX 162151Z COR 32008KT 7SM HZ CLR 28/05 A3004 RMK AO2 SLP172 T02830050
KSMX 162051Z 30008KT 7SM CLR 29/04 A3005 RMK AO2 SLP176 T02940039 56017
KSMX 161951Z 32010KT 10SM CLR 31/07 A3007 RMK AO2 SLP182 T03110072
KSMX 161851Z 00000KT 10SM CLR 32/M04 A3009 RMK AO2 SLP186 T03171044
KSMX 161751Z VRB03KT 10SM CLR 29/M03 A3010 RMK AO2 SLP193 T02941028 10300 20100 50002
KSMX 161651Z 05003KT 10SM CLR 26/M01 A3011 RMK AO2 SLP197 T02611006
KSMX 161551Z 00000KT 8SM BKN200 20/01 A3011 RMK AO2 SLP197 T02000006
KSMX 161451Z 12003KT 9SM BKN200 13/01 A3009 RMK AO2 SLP192 T01330006 51009
KSMX 161351Z 17003KT 9SM BKN200 12/01 A3009 RMK AO2 SLP189 T01170011
KSMX 161251Z 11004KT 10SM CLR 11/01 A3008 RMK AO2 SLP187 T01110006
KSMX 161151Z AUTO 16003KT 10SM CLR 12/02 A3007 RMK AO2 SLP181 T01170017 10156 20106 55006
KSMX 161051Z AUTO 00000KT 10SM CLR 13/01 A3006 RMK AO2 SLP181 T01280011
KSMX 160951Z AUTO 00000KT 10SM CLR 13/02 A3008 RMK AO2 SLP186 T01330017
KSMX 160851Z AUTO 15003KT 10SM CLR 12/01 A3009 RMK AO2 SLP188 T01220011 57005
KSMX 160751Z AUTO 14004KT 10SM CLR 13/02 A3009 RMK AO2 SLP190 T01330017 403170094
KSMX 160651Z AUTO 00000KT 10SM CLR 15/02 A3009 RMK AO2 SLP191 T01500017
KSMX 160551Z AUTO 10004KT 10SM CLR 14/03 A3010 RMK AO2 SLP193 T01440033 10278 20144 50006
KSMX 160451Z AUTO 14004KT 10SM CLR 16/03 A3010 RMK AO2 SLP193 T01560028
KSMX 160351Z AUTO 15003KT 8SM CLR 17/06 A3009 RMK AO2 SLP190 T01720056
KSMX 160251Z 16003KT 9SM CLR 18/06 A3008 RMK AO2 SLP189 T01830061 53010
KSMX 160151Z 00000KT 10SM CLR 22/06 A3007 RMK AO2 SLP183 T02170061
KSMX 160051Z 32007KT 9SM CLR 24/06 A3006 RMK AO2 SLP179 T02440056
KSMX 152351Z 34008KT 10SM CLR 28/02 A3005 RMK AO2 SLP177 T02780022 10317 20278 53001
KSMX 152251Z 33009KT 9SM CLR 29/01 A3005 RMK AO2 SLP176 T02890011
KSMX 152151Z 32009KT 9SM CLR 29/02 A3005 RMK AO2 SLP175 T02890017
KSMX 152051Z 31011KT 9SM CLR 31/01 A3005 RMK AO2 SLP176 T03060011 58012